Airfield :







YOU CAN JOIN US ON...

 
LOGIN :

Register | Disclaimer

   EN    FR    IT 

 









Legend :    VFR   Marginal VFR   IFR   Intensive IFR   Very Intensive IFR
Visi :
Ceiling :
>= 8 km
>= 3000ft
5 to 8 km
1000 to 3000 ft
1500m to 5 km
500 to 1000 ft
800 to 1500m
200 to 500 ft
< 800m
< 200 ft
Symbols :   Thunderstorms  Fog  Heavy snow  Heavy precipitations  Wind > 20 kt






- Airport Elevation : 141 ft
- IATA code : YQI


CYQI - Yarmouth

CURRENT METAR :
  • 010200Z 13022G31KT 10SM -RA OVC078 12/12 A3005 RMK NS8 SLP177

EXPIRED METARs :
  • 010100Z 14021G31KT 10SM -RA OVC079 12/10 A3006 RMK NS8 SLP183
  • 010000Z 15023G33KT 10SM -RA BKN063 OVC130 13/09 A3009 RMK NS5AS3 SLP193
  • 302300Z 15020G32KT 10SM SCT066 OVC120 13/09 A3010 RMK NS3AS5 PRESFR SLP196

TAF TAF CYQI
Valid from the 01 at 00:00 until the 01 at 12:00 UTC


302338Z 0100/0112 15015G25KT P6SM SCT015 BKN040
FM010100 14020G30KT P6SM -RA SCT015 OVC030
TEMPO 0101/0103 5SM -RA BR OVC015
FM010300 14025G40KT 2SM RA BR BKN005 OVC008
TEMPO 0103/0110 5SM -RA BR OVC008
PROB40 0103/0110 1/2SM RA FG VV001
FM011000 18022G35KT 1/2SM RA FG VV002
TEMPO 0110/0112 3SM -RA BR BKN005 OVC008 RMK NXT FCST BY 010600Z
CZQM FIR / North America



MET'MAP, your aeronautical weather chart ! - Copyright ORBIFLY December 2007 - Disclaimer

ORBIFLY MET'MAP TEAM :

Programming & Development : Alexandra Zaïnal
Concept & original design : Baudouin d'Aumeries
Assistance for programming : Marc-Olivier Méhu
Technical & hardware support : Manuel Goepfert

Contact : metmap@orbifly.com




SOURCES & CREDITS :

   NOAA